Time;durP1;ratioP1;P1;durP2;ratioP2;P2;SDS_P1;SDS_P2;PMS_P1;PMS_P2;Temp;Humidity;BMP_temperature;BMP_pressure;BME280_temperature;BME280_humidity;BME280_pressure;Samples;Min_cycle;Max_cycle;Signal;HPM_P1;HPM_P2
2024/03/24 00:01:03;;;;;;;23.83;22.03;;;;;;;;;;5042498;28;20477;-82
2024/03/24 00:03:29;;;;;;;23.50;21.90;;;;;;;;;;5055575;28;20438;-83
2024/03/24 00:05:56;;;;;;;25.58;23.45;;;;;;;;;;5055110;28;20884;-84
2024/03/24 00:08:24;;;;;;;27.63;25.53;;;;;;;;;;5055284;28;20255;-84
2024/03/24 00:10:51;;;;;;;25.77;23.75;;;;;;;;;;5055310;28;20488;-83
2024/03/24 00:13:17;;;;;;;25.90;24.00;;;;;;;;;;5054986;28;20203;-82
2024/03/24 00:15:44;;;;;;;23.65;22.02;;;;;;;;;;5054721;28;20454;-83
2024/03/24 00:18:10;;;;;;;30.27;27.80;;;;;;;;;;5054605;28;20221;-83
2024/03/24 00:20:37;;;;;;;27.30;25.10;;;;;;;;;;5055250;28;20966;-84
2024/03/24 00:23:03;;;;;;;26.58;24.50;;;;;;;;;;5057038;28;20412;-82
2024/03/24 00:25:32;;;;;;;29.02;26.73;;;;;;;;;;5059346;28;20211;-84
2024/03/24 00:27:58;;;;;;;29.25;26.95;;;;;;;;;;5058383;28;20208;-83
2024/03/24 00:30:31;;;;;;;29.88;27.67;;;;;;;;;;5059087;28;20301;-81
2024/03/24 00:32:57;;;;;;;26.90;24.80;;;;;;;;;;5059826;28;20283;-84
2024/03/24 00:35:24;;;;;;;24.40;22.67;;;;;;;;;;5058956;28;20453;-82
2024/03/24 00:37:50;;;;;;;25.63;23.63;;;;;;;;;;5057903;28;20280;-84
2024/03/24 00:40:17;;;;;;;26.25;24.25;;;;;;;;;;5058684;28;20315;-84
2024/03/24 00:42:45;;;;;;;22.38;20.85;;;;;;;;;;5058771;28;20216;-84
2024/03/24 00:45:12;;;;;;;23.13;21.23;;;;;;;;;;5058524;28;20670;-84
2024/03/24 00:47:38;;;;;;;27.25;25.15;;;;;;;;;;5057585;28;20207;-83
2024/03/24 00:50:09;;;;;;;27.30;25.08;;;;;;;;;;5058330;28;20226;-83
2024/03/24 00:52:35;;;;;;;23.30;21.60;;;;;;;;;;5058424;28;20203;-82
2024/03/24 00:55:02;;;;;;;26.30;24.40;;;;;;;;;;5059169;28;20457;-85
2024/03/24 00:57:28;;;;;;;21.77;20.27;;;;;;;;;;5046586;28;20226;-83
2024/03/24 00:59:56;;;;;;;23.87;22.27;;;;;;;;;;5038063;28;20233;-83
2024/03/24 01:02:22;;;;;;;24.58;22.85;;;;;;;;;;5038316;28;20879;-82
2024/03/24 01:04:49;;;;;;;28.50;26.10;;;;;;;;;;5037700;28;20204;-84
2024/03/24 01:07:15;;;;;;;21.47;20.10;;;;;;;;;;5037545;28;20203;-83
2024/03/24 01:09:42;;;;;;;23.63;22.00;;;;;;;;;;5037932;28;20469;-83
2024/03/24 01:12:08;;;;;;;25.00;23.30;;;;;;;;;;5045627;28;20446;-82
2024/03/24 01:14:35;;;;;;;28.83;26.42;;;;;;;;;;5038678;28;20431;-83
2024/03/24 01:17:03;;;;;;;29.40;26.90;;;;;;;;;;5037207;28;20274;-83
2024/03/24 01:19:30;;;;;;;26.83;24.70;;;;;;;;;;5039025;28;20479;-82
2024/03/24 01:21:56;;;;;;;23.07;21.47;;;;;;;;;;5057618;28;20516;-84
2024/03/24 01:24:23;;;;;;;23.57;22.00;;;;;;;;;;5057656;28;20495;-83
2024/03/24 01:26:49;;;;;;;27.87;25.70;;;;;;;;;;5057354;28;20445;-82
2024/03/24 01:29:16;;;;;;;22.00;20.50;;;;;;;;;;5057616;28;20456;-82
2024/03/24 01:31:42;;;;;;;21.10;19.70;;;;;;;;;;5058017;28;20491;-83
2024/03/24 01:34:10;;;;;;;25.80;23.90;;;;;;;;;;5049951;28;20455;-83
2024/03/24 01:36:36;;;;;;;23.80;21.80;;;;;;;;;;5037159;28;20451;-82
2024/03/24 01:39:03;;;;;;;22.40;21.00;;;;;;;;;;5037483;28;20446;-82
2024/03/24 01:41:29;;;;;;;25.80;23.67;;;;;;;;;;5036980;28;20429;-84
2024/03/24 01:43:57;;;;;;;26.00;23.70;;;;;;;;;;5037171;28;20429;-82
2024/03/24 01:46:23;;;;;;;22.07;20.30;;;;;;;;;;5036796;28;20858;-82
2024/03/24 01:48:50;;;;;;;27.77;25.77;;;;;;;;;;5037675;28;20429;-83
2024/03/24 01:51:19;;;;;;;25.43;23.67;;;;;;;;;;5037374;28;20427;-83
2024/03/24 01:53:46;;;;;;;25.25;23.55;;;;;;;;;;5036931;28;20532;-82
2024/03/24 01:56:12;;;;;;;26.57;24.20;;;;;;;;;;5037063;28;20219;-82
2024/03/24 01:58:39;;;;;;;27.03;25.03;;;;;;;;;;5037133;28;20486;-82
2024/03/24 02:01:05;;;;;;;25.85;23.88;;;;;;;;;;5036524;28;20523;-82
2024/03/24 02:03:32;;;;;;;23.97;22.10;;;;;;;;;;5037744;28;20215;-82
2024/03/24 02:05:58;;;;;;;29.47;27.07;;;;;;;;;;5036731;28;20439;-84
2024/03/24 02:08:29;;;;;;;29.43;27.30;;;;;;;;;;5036791;28;20963;-84
2024/03/24 02:10:55;;;;;;;25.20;23.60;;;;;;;;;;5036777;28;20445;-82
2024/03/24 02:13:22;;;;;;;24.33;22.63;;;;;;;;;;5037537;28;20826;-82
2024/03/24 02:15:49;;;;;;;25.77;23.98;;;;;;;;;;5036610;28;20429;-84
2024/03/24 02:18:16;;;;;;;23.33;21.63;;;;;;;;;;5036877;28;20289;-82
2024/03/24 02:20:42;;;;;;;26.37;24.27;;;;;;;;;;5036272;28;20530;-84
2024/03/24 02:23:10;;;;;;;23.00;21.37;;;;;;;;;;5036984;28;20429;-82
2024/03/24 02:25:36;;;;;;;26.47;24.30;;;;;;;;;;5036403;28;20515;-82
2024/03/24 02:28:04;;;;;;;24.33;22.50;;;;;;;;;;5036365;28;20470;-82
2024/03/24 02:30:30;;;;;;;22.47;21.03;;;;;;;;;;5036874;28;21228;-83
2024/03/24 02:32:57;;;;;;;26.10;24.20;;;;;;;;;;5036848;28;21059;-80
2024/03/24 02:35:24;;;;;;;22.93;21.10;;;;;;;;;;5036259;28;20478;-83
2024/03/24 02:37:51;;;;;;;22.40;20.90;;;;;;;;;;5035823;28;20471;-84
2024/03/24 02:40:20;;;;;;;25.40;23.60;;;;;;;;;;5036462;28;20471;-83
2024/03/24 02:42:47;;;;;;;25.45;23.55;;;;;;;;;;5036120;28;20703;-82
2024/03/24 02:45:13;;;;;;;19.57;18.40;;;;;;;;;;5035744;28;20211;-82
2024/03/24 02:47:40;;;;;;;21.05;19.73;;;;;;;;;;5035878;28;20480;-83
2024/03/24 02:50:06;;;;;;;21.37;20.07;;;;;;;;;;5035807;28;20703;-82
2024/03/24 02:52:33;;;;;;;24.13;22.50;;;;;;;;;;5036179;28;20431;-82
2024/03/24 02:54:59;;;;;;;22.63;21.20;;;;;;;;;;5036358;28;20421;-82
2024/03/24 02:57:28;;;;;;;21.40;20.10;;;;;;;;;;5035245;28;20548;-82
2024/03/24 02:59:54;;;;;;;24.75;23.05;;;;;;;;;;5036150;28;20431;-82
2024/03/24 03:02:21;;;;;;;22.47;21.07;;;;;;;;;;5036414;28;20229;-82
2024/03/24 03:04:48;;;;;;;24.60;22.63;;;;;;;;;;5035917;28;20979;-83
2024/03/24 03:07:14;;;;;;;25.13;23.47;;;;;;;;;;5035116;28;20518;-82
2024/03/24 03:09:41;;;;;;;21.40;19.87;;;;;;;;;;5048482;28;20847;-84
2024/03/24 03:12:08;;;;;;;24.73;22.77;;;;;;;;;;5055967;28;20451;-82
2024/03/24 03:14:35;;;;;;;24.10;22.50;;;;;;;;;;5055738;28;20426;-84
2024/03/24 03:17:02;;;;;;;22.37;20.67;;;;;;;;;;5055463;28;20957;-82
2024/03/24 03:19:28;;;;;;;24.27;22.77;;;;;;;;;;5055601;28;20530;-82
2024/03/24 03:21:55;;;;;;;27.03;24.97;;;;;;;;;;5055796;28;20464;-82
2024/03/24 03:24:21;;;;;;;26.40;24.50;;;;;;;;;;5055533;28;20449;-82
2024/03/24 03:26:48;;;;;;;24.60;23.00;;;;;;;;;;5054779;28;20476;-82
2024/03/24 03:29:14;;;;;;;21.83;20.47;;;;;;;;;;5055113;28;20528;-83
2024/03/24 03:31:42;;;;;;;24.03;22.40;;;;;;;;;;5055769;28;20447;-82
2024/03/24 03:34:08;;;;;;;26.77;24.87;;;;;;;;;;5049555;28;20445;-84
2024/03/24 03:36:35;;;;;;;27.95;25.90;;;;;;;;;;5034821;28;20409;-83
2024/03/24 03:39:02;;;;;;;27.65;25.73;;;;;;;;;;5035051;28;20776;-83
2024/03/24 03:41:29;;;;;;;28.93;26.60;;;;;;;;;;5036188;28;20208;-83
2024/03/24 03:43:55;;;;;;;28.85;26.85;;;;;;;;;;5035762;28;20490;-82
2024/03/24 03:46:22;;;;;;;29.50;27.03;;;;;;;;;;5035212;28;20265;-82
2024/03/24 03:48:50;;;;;;;26.53;24.53;;;;;;;;;;5035870;28;20445;-83
2024/03/24 03:51:29;;;;;;;29.33;27.23;;;;;;;;;;5035216;28;20583;-82
2024/03/24 03:53:58;;;;;;;27.13;25.17;;;;;;;;;;5035932;28;20453;-84
2024/03/24 03:56:25;;;;;;;30.63;28.02;;;;;;;;;;5035086;28;20213;-84
2024/03/24 03:58:51;;;;;;;32.63;30.20;;;;;;;;;;5035859;28;20627;-84
2024/03/24 04:01:18;;;;;;;28.07;26.17;;;;;;;;;;5035768;28;20516;-83
2024/03/24 04:03:44;;;;;;;25.50;23.80;;;;;;;;;;5035883;28;20445;-83
2024/03/24 04:06:12;;;;;;;29.58;27.45;;;;;;;;;;5035408;28;20437;-83
2024/03/24 04:08:40;;;;;;;30.90;28.55;;;;;;;;;;5036054;28;20208;-84
2024/03/24 04:11:07;;;;;;;28.73;26.83;;;;;;;;;;5035736;28;20971;-84
2024/03/24 04:13:33;;;;;;;29.77;27.73;;;;;;;;;;5036132;28;20662;-83
2024/03/24 04:16:00;;;;;;;33.03;30.50;;;;;;;;;;5035309;28;20555;-83
2024/03/24 04:18:26;;;;;;;35.77;32.90;;;;;;;;;;5035361;28;20313;-84
2024/03/24 04:20:53;;;;;;;34.47;31.92;;;;;;;;;;5035370;28;20452;-83
2024/03/24 04:23:20;;;;;;;38.00;35.20;;;;;;;;;;5036114;28;20206;-84
2024/03/24 04:25:49;;;;;;;34.90;32.50;;;;;;;;;;5035773;28;20485;-85
2024/03/24 04:28:15;;;;;;;37.63;34.60;;;;;;;;;;5035369;28;20502;-85
2024/03/24 04:30:42;;;;;;;40.88;37.85;;;;;;;;;;5035699;28;20227;-83
2024/03/24 04:33:08;;;;;;;38.45;35.75;;;;;;;;;;5036212;28;20258;-83
2024/03/24 04:35:35;;;;;;;31.45;29.27;;;;;;;;;;5036488;28;20729;-85
2024/03/24 04:38:01;;;;;;;30.17;28.20;;;;;;;;;;5036005;28;20293;-85
2024/03/24 04:40:30;;;;;;;34.25;31.75;;;;;;;;;;5035311;28;21290;-85
2024/03/24 04:42:57;;;;;;;29.13;27.35;;;;;;;;;;5035385;28;20187;-83
2024/03/24 04:45:24;;;;;;;29.43;27.63;;;;;;;;;;5036374;28;20219;-84
2024/03/24 04:47:51;;;;;;;27.83;26.13;;;;;;;;;;5035188;28;20455;-82
2024/03/24 04:50:19;;;;;;;31.05;28.65;;;;;;;;;;5035296;28;20576;-82
2024/03/24 04:52:47;;;;;;;28.90;26.80;;;;;;;;;;5034723;28;20275;-85
2024/03/24 04:55:14;;;;;;;27.90;26.00;;;;;;;;;;5034935;28;20238;-82
2024/03/24 04:57:41;;;;;;;29.25;27.45;;;;;;;;;;5034388;28;20468;-84
2024/03/24 05:00:10;;;;;;;30.63;28.43;;;;;;;;;;5034984;28;20223;-85
2024/03/24 05:02:36;;;;;;;35.10;32.35;;;;;;;;;;5034622;28;20548;-85
2024/03/24 05:05:03;;;;;;;31.57;29.47;;;;;;;;;;5035046;28;20200;-85
2024/03/24 05:07:30;;;;;;;36.67;34.00;;;;;;;;;;5034108;28;20447;-84
2024/03/24 05:09:57;;;;;;;31.38;29.33;;;;;;;;;;5055510;28;20259;-83
2024/03/24 05:15:31;;;;;;;31.80;29.60;;;;;;;;;;5035458;28;20218;-85
2024/03/24 05:17:57;;;;;;;34.57;32.27;;;;;;;;;;5042659;28;20278;-85
2024/03/24 05:20:24;;;;;;;32.38;30.27;;;;;;;;;;5044842;28;20564;-83
2024/03/24 05:22:50;;;;;;;28.17;26.53;;;;;;;;;;5037932;28;20231;-84
2024/03/24 05:25:17;;;;;;;37.10;34.40;;;;;;;;;;5038452;28;20966;-84
2024/03/24 05:27:43;;;;;;;32.80;30.58;;;;;;;;;;5037706;28;20212;-84
2024/03/24 05:30:11;;;;;;;35.58;32.92;;;;;;;;;;5037771;28;20223;-84
2024/03/24 05:32:38;;;;;;;33.22;30.63;;;;;;;;;;5038718;28;20256;-84
2024/03/24 05:35:06;;;;;;;30.02;28.08;;;;;;;;;;5046964;28;20227;-84
2024/03/24 05:37:32;;;;;;;30.30;28.40;;;;;;;;;;5038103;28;20204;-85
2024/03/24 05:39:59;;;;;;;26.33;24.42;;;;;;;;;;5036338;28;20253;-80
2024/03/24 05:42:25;;;;;;;29.80;27.70;;;;;;;;;;5035401;28;20265;-80
2024/03/24 05:44:52;;;;;;;30.98;28.90;;;;;;;;;;5035503;28;20438;-80
2024/03/24 05:47:18;;;;;;;27.92;26.02;;;;;;;;;;5035145;28;20208;-81
2024/03/24 05:49:46;;;;;;;30.63;28.47;;;;;;;;;;5035646;28;20304;-80
2024/03/24 05:52:12;;;;;;;25.30;23.70;;;;;;;;;;5035405;28;20450;-79
2024/03/24 05:54:39;;;;;;;24.23;22.65;;;;;;;;;;5035714;28;20277;-79
2024/03/24 05:57:05;;;;;;;26.33;24.52;;;;;;;;;;5035307;28;20269;-80
2024/03/24 05:59:32;;;;;;;26.55;24.92;;;;;;;;;;5035531;28;20319;-81
2024/03/24 06:01:58;;;;;;;25.10;23.70;;;;;;;;;;5035949;28;20731;-79
2024/03/24 06:04:28;;;;;;;26.03;24.57;;;;;;;;;;5035891;28;20202;-80
2024/03/24 06:06:55;;;;;;;26.98;25.17;;;;;;;;;;5038722;28;20509;-79
2024/03/24 06:09:22;;;;;;;28.00;26.23;;;;;;;;;;5043034;28;20246;-79
2024/03/24 06:11:48;;;;;;;27.98;25.77;;;;;;;;;;5035642;28;20216;-79
2024/03/24 06:14:15;;;;;;;29.02;27.23;;;;;;;;;;5035774;28;20203;-80
2024/03/24 06:16:41;;;;;;;25.63;24.13;;;;;;;;;;5035106;28;20204;-81
2024/03/24 06:19:08;;;;;;;28.80;27.00;;;;;;;;;;5035314;28;20548;-79
2024/03/24 06:21:34;;;;;;;28.40;26.58;;;;;;;;;;5034899;28;20507;-79
2024/03/24 06:24:02;;;;;;;29.15;27.25;;;;;;;;;;5036140;28;20269;-81
2024/03/24 06:26:28;;;;;;;27.27;25.57;;;;;;;;;;5038097;28;20211;-80
2024/03/24 06:28:55;;;;;;;25.70;24.30;;;;;;;;;;5039254;28;20484;-82
2024/03/24 06:31:22;;;;;;;32.50;30.10;;;;;;;;;;5041671;28;20207;-81
2024/03/24 06:33:49;;;;;;;31.23;29.05;;;;;;;;;;5037489;28;20655;-81
2024/03/24 06:36:15;;;;;;;30.02;27.90;;;;;;;;;;5036200;28;20227;-81
2024/03/24 06:38:42;;;;;;;30.10;28.10;;;;;;;;;;5036468;28;20299;-80
2024/03/24 06:41:10;;;;;;;35.60;33.10;;;;;;;;;;5035513;28;20475;-80
2024/03/24 06:43:41;;;;;;;34.00;31.80;;;;;;;;;;5036240;28;20235;-80
2024/03/24 06:46:07;;;;;;;35.75;33.15;;;;;;;;;;5035268;28;20208;-80
2024/03/24 06:48:34;;;;;;;36.80;34.30;;;;;;;;;;5035885;28;20250;-80
2024/03/24 06:51:01;;;;;;;36.67;33.90;;;;;;;;;;5035145;28;20530;-80
2024/03/24 06:53:28;;;;;;;32.80;30.63;;;;;;;;;;5035446;28;20616;-80
2024/03/24 06:55:54;;;;;;;36.35;33.80;;;;;;;;;;5034062;28;20211;-80
2024/03/24 06:58:22;;;;;;;31.83;29.60;;;;;;;;;;5050842;28;20254;-80
2024/03/24 07:00:52;;;;;;;32.83;30.30;;;;;;;;;;5037807;28;20488;-80
2024/03/24 07:03:19;;;;;;;34.72;32.13;;;;;;;;;;5035068;28;20451;-80
2024/03/24 07:05:45;;;;;;;32.38;30.17;;;;;;;;;;5034836;28;20265;-80
2024/03/24 07:08:12;;;;;;;33.05;29.73;;;;;;;;;;5034741;28;20208;-80
2024/03/24 07:10:38;;;;;;;32.58;30.38;;;;;;;;;;5043367;28;20760;-80
2024/03/24 07:13:05;;;;;;;34.17;31.48;;;;;;;;;;5034111;28;20202;-79
2024/03/24 07:15:32;;;;;;;31.07;29.00;;;;;;;;;;5034552;28;20273;-79
2024/03/24 07:17:59;;;;;;;29.23;27.27;;;;;;;;;;5033841;28;20494;-81
2024/03/24 07:20:25;;;;;;;32.53;30.30;;;;;;;;;;5033679;28;20297;-81
2024/03/24 07:22:53;;;;;;;30.40;28.43;;;;;;;;;;5033809;28;20458;-80
2024/03/24 07:25:19;;;;;;;26.33;24.83;;;;;;;;;;5033328;28;20462;-79
2024/03/24 07:27:46;;;;;;;26.17;24.33;;;;;;;;;;5033011;28;20850;-80
2024/03/24 07:30:12;;;;;;;26.13;24.53;;;;;;;;;;5033636;28;20857;-81
2024/03/24 07:32:41;;;;;;;25.57;23.97;;;;;;;;;;5033504;28;20505;-79
2024/03/24 07:35:07;;;;;;;31.93;29.83;;;;;;;;;;5034453;28;20474;-81
2024/03/24 07:37:34;;;;;;;26.75;24.65;;;;;;;;;;5033823;28;20489;-79
2024/03/24 07:40:00;;;;;;;27.03;25.30;;;;;;;;;;5034654;28;20256;-79
2024/03/24 07:42:27;;;;;;;26.10;24.40;;;;;;;;;;5034147;28;20413;-80
2024/03/24 07:44:53;;;;;;;23.90;22.60;;;;;;;;;;5033548;28;20442;-80
2024/03/24 07:47:24;;;;;;;24.27;22.87;;;;;;;;;;5032766;28;20417;-80
2024/03/24 07:49:52;;;;;;;24.23;22.50;;;;;;;;;;5033322;28;20507;-81
2024/03/24 07:52:19;;;;;;;22.53;21.33;;;;;;;;;;5033375;28;20425;-80
2024/03/24 07:54:45;;;;;;;25.13;23.53;;;;;;;;;;5033362;28;20508;-80
2024/03/24 07:57:12;;;;;;;25.30;23.90;;;;;;;;;;5033628;28;20483;-79
2024/03/24 07:59:38;;;;;;;25.07;23.53;;;;;;;;;;5033714;28;20226;-80
2024/03/24 08:02:05;;;;;;;25.87;24.27;;;;;;;;;;5034825;28;20479;-79
2024/03/24 08:04:31;;;;;;;21.77;20.60;;;;;;;;;;5031791;28;20458;-77
2024/03/24 08:06:59;;;;;;;23.80;22.40;;;;;;;;;;5031441;28;20429;-77
2024/03/24 08:09:25;;;;;;;24.10;22.37;;;;;;;;;;5050141;28;20474;-78
2024/03/24 08:11:52;;;;;;;23.47;22.00;;;;;;;;;;5050496;28;20457;-77
2024/03/24 08:14:18;;;;;;;20.97;19.87;;;;;;;;;;5050191;28;20453;-78
2024/03/24 08:16:45;;;;;;;22.57;21.17;;;;;;;;;;5049643;28;20506;-77
2024/03/24 08:19:11;;;;;;;22.13;20.83;;;;;;;;;;5049719;28;20481;-78
2024/03/24 08:21:38;;;;;;;22.53;21.23;;;;;;;;;;5049443;28;20420;-77
2024/03/24 08:24:06;;;;;;;23.73;22.03;;;;;;;;;;5049430;28;20456;-78
2024/03/24 08:26:33;;;;;;;22.50;21.00;;;;;;;;;;5033464;28;20468;-79
2024/03/24 08:28:59;;;;;;;21.97;20.80;;;;;;;;;;5030269;28;21135;-77
2024/03/24 08:31:26;;;;;;;25.33;23.92;;;;;;;;;;5030481;28;20462;-79
2024/03/24 08:33:52;;;;;;;26.20;24.40;;;;;;;;;;5030507;28;20606;-78
2024/03/24 08:36:19;;;;;;;26.60;24.90;;;;;;;;;;5030261;28;20450;-78
2024/03/24 08:38:45;;;;;;;23.90;22.50;;;;;;;;;;5030743;28;20494;-78
2024/03/24 08:41:13;;;;;;;22.33;21.30;;;;;;;;;;5030231;28;20445;-79
2024/03/24 08:43:40;;;;;;;23.90;22.50;;;;;;;;;;5031683;28;20464;-77
2024/03/24 08:46:06;;;;;;;25.13;23.73;;;;;;;;;;5034052;28;20462;-77
2024/03/24 08:48:32;;;;;;;27.07;25.23;;;;;;;;;;5033993;28;20500;-79
2024/03/24 08:51:00;;;;;;;24.73;23.53;;;;;;;;;;5049744;28;20485;-79
2024/03/24 08:53:26;;;;;;;25.43;24.13;;;;;;;;;;5053684;28;20951;-79
2024/03/24 08:55:53;;;;;;;25.73;24.33;;;;;;;;;;5052981;28;20431;-79
2024/03/24 08:58:20;;;;;;;28.60;26.70;;;;;;;;;;5053389;28;20451;-78
2024/03/24 09:00:52;;;;;;;26.83;25.47;;;;;;;;;;5053481;28;20483;-77
2024/03/24 09:03:18;;;;;;;25.30;23.80;;;;;;;;;;5053488;28;20429;-79
2024/03/24 09:05:45;;;;;;;27.60;25.80;;;;;;;;;;5052868;28;20442;-77
2024/03/24 09:08:11;;;;;;;24.17;22.87;;;;;;;;;;5053119;28;20420;-76
2024/03/24 09:10:38;;;;;;;23.10;21.73;;;;;;;;;;5053026;28;20480;-77
2024/03/24 09:13:04;;;;;;;23.63;22.40;;;;;;;;;;5053142;28;20452;-78
2024/03/24 09:15:33;;;;;;;24.70;23.30;;;;;;;;;;5053284;28;20461;-78
2024/03/24 09:18:00;;;;;;;23.73;22.40;;;;;;;;;;5052594;28;20930;-79
2024/03/24 09:20:27;;;;;;;27.83;26.03;;;;;;;;;;5051361;28;21462;-79
2024/03/24 09:25:57;;;;;;;23.37;21.87;;;;;;;;;;5038908;28;20928;-77
2024/03/24 09:28:23;;;;;;;22.60;21.30;;;;;;;;;;5034813;28;20868;-77
2024/03/24 09:30:57;;;;;;;22.90;21.13;;;;;;;;;;5032878;28;20513;-77
2024/03/24 09:33:23;;;;;;;21.07;19.67;;;;;;;;;;5033013;28;20460;-77
2024/03/24 09:35:50;;;;;;;19.83;18.70;;;;;;;;;;5032296;28;20447;-77
2024/03/24 09:38:16;;;;;;;20.90;19.80;;;;;;;;;;5033400;28;20467;-78
2024/03/24 09:40:43;;;;;;;20.30;19.17;;;;;;;;;;5043487;28;20463;-77
2024/03/24 09:43:10;;;;;;;19.63;18.50;;;;;;;;;;5045899;28;20985;-76
2024/03/24 09:45:37;;;;;;;19.87;18.53;;;;;;;;;;5033492;28;20531;-77
2024/03/24 09:48:08;;;;;;;19.97;18.93;;;;;;;;;;5033200;28;20453;-78
2024/03/24 09:50:37;;;;;;;18.93;18.00;;;;;;;;;;5032287;28;20479;-76
2024/03/24 09:53:03;;;;;;;20.30;18.83;;;;;;;;;;5038396;28;20428;-78
2024/03/24 09:55:31;;;;;;;20.93;19.17;;;;;;;;;;5051915;28;20450;-77
2024/03/24 09:57:58;;;;;;;21.77;20.37;;;;;;;;;;5051240;28;20453;-77
2024/03/24 10:00:26;;;;;;;19.73;18.53;;;;;;;;;;5051620;28;20942;-78
2024/03/24 10:06:04;;;;;;;20.40;19.20;;;;;;;;;;5032081;28;20564;-78
2024/03/24 10:08:32;;;;;;;20.80;19.50;;;;;;;;;;5030897;28;20440;-77
2024/03/24 10:11:14;;;;;;;21.63;20.17;;;;;;;;;;5033744;28;20461;-78
2024/03/24 10:13:42;;;;;;;22.47;20.20;;;;;;;;;;5035133;28;20717;-78
2024/03/24 10:16:14;;;;;;;19.43;18.23;;;;;;;;;;5031453;28;20803;-77
2024/03/24 10:18:40;;;;;;;20.50;18.80;;;;;;;;;;5031653;28;20982;-78
2024/03/24 10:21:11;;;;;;;19.03;17.90;;;;;;;;;;5031567;28;20482;-77
2024/03/24 10:23:37;;;;;;;21.63;20.03;;;;;;;;;;5032177;28;20450;-78
2024/03/24 10:26:04;;;;;;;21.13;19.30;;;;;;;;;;5031288;28;20430;-77
2024/03/24 10:28:30;;;;;;;20.10;18.80;;;;;;;;;;5037955;28;20458;-76
2024/03/24 10:31:05;;;;;;;21.20;19.73;;;;;;;;;;5033793;28;20456;-77
2024/03/24 10:33:32;;;;;;;20.33;18.90;;;;;;;;;;5031927;28;20430;-76
2024/03/24 10:42:09;;;;;;;20.30;18.70;;;;;;;;;;5045551;28;20985;-78
2024/03/24 10:44:36;;;;;;;21.07;19.67;;;;;;;;;;5031689;28;20815;-78
2024/03/24 10:47:03;;;;;;;21.33;19.73;;;;;;;;;;5030323;28;20449;-77
2024/03/24 10:49:30;;;;;;;20.63;19.13;;;;;;;;;;5031270;28;20459;-76
2024/03/24 10:52:31;;;;;;;20.80;19.40;;;;;;;;;;5031164;28;20451;-77
2024/03/24 10:58:07;;;;;;;23.17;21.43;;;;;;;;;;4982757;28;20485;-78
2024/03/24 11:00:34;;;;;;;22.53;21.00;;;;;;;;;;5021128;28;20497;-77
2024/03/24 11:03:01;;;;;;;21.30;19.80;;;;;;;;;;5047696;28;20463;-77
2024/03/24 11:05:28;;;;;;;20.70;19.40;;;;;;;;;;5048329;28;20462;-76
2024/03/24 11:07:56;;;;;;;21.13;19.70;;;;;;;;;;5049451;28;20890;-77
2024/03/24 11:10:24;;;;;;;22.10;20.60;;;;;;;;;;5050571;28;20808;-76
2024/03/24 11:12:55;;;;;;;21.57;20.10;;;;;;;;;;5050855;28;20453;-77
2024/03/24 11:15:41;;;;;;;21.10;19.60;;;;;;;;;;5051122;28;21195;-77
2024/03/24 11:18:21;;;;;;;19.80;18.80;;;;;;;;;;5050237;28;20539;-75
2024/03/24 11:20:58;;;;;;;22.30;20.47;;;;;;;;;;5049423;28;20509;-76
2024/03/24 11:23:37;;;;;;;23.50;21.80;;;;;;;;;;5050518;28;20451;-77
2024/03/24 11:26:09;;;;;;;23.03;21.40;;;;;;;;;;5049689;28;20921;-76
2024/03/24 11:28:40;;;;;;;21.47;20.17;;;;;;;;;;5049447;28;20455;-78
2024/03/24 11:31:20;;;;;;;24.13;22.50;;;;;;;;;;5049636;28;20476;-76
2024/03/24 11:34:01;;;;;;;24.07;22.67;;;;;;;;;;5049536;28;20453;-76
2024/03/24 11:36:47;;;;;;;27.33;25.20;;;;;;;;;;5044931;28;20466;-77
2024/03/24 11:39:15;;;;;;;24.53;22.93;;;;;;;;;;5037327;28;20837;-78
2024/03/24 11:41:53;;;;;;;25.53;23.53;;;;;;;;;;5050343;28;20461;-77
2024/03/24 11:47:05;;;;;;;26.57;24.53;;;;;;;;;;5048256;28;20442;-76
2024/03/24 11:49:46;;;;;;;24.97;23.47;;;;;;;;;;5029806;28;21282;-77
2024/03/24 11:52:32;;;;;;;22.40;21.13;;;;;;;;;;5044406;28;21112;-77
2024/03/24 11:55:00;;;;;;;22.53;21.23;;;;;;;;;;5045929;28;20461;-75
2024/03/24 12:00:23;;;;;;;22.33;20.93;;;;;;;;;;5047747;28;20500;-75
2024/03/24 12:02:50;;;;;;;22.40;21.10;;;;;;;;;;5049977;28;20413;-76
2024/03/24 12:11:01;;;;;;;20.23;18.87;;;;;;;;;;5106857;28;20565;-76
2024/03/24 12:13:29;;;;;;;21.00;19.80;;;;;;;;;;5095766;28;20944;-77
2024/03/24 12:16:00;;;;;;;21.70;19.40;;;;;;;;;;5087126;28;20432;-75
2024/03/24 12:18:27;;;;;;;21.67;20.27;;;;;;;;;;5087755;28;20922;-77
2024/03/24 12:20:54;;;;;;;21.80;20.30;;;;;;;;;;5087463;28;20506;-78
2024/03/24 12:23:25;;;;;;;21.33;20.23;;;;;;;;;;5087554;28;20929;-77
2024/03/24 12:25:57;;;;;;;21.50;20.33;;;;;;;;;;5102886;28;20454;-77
2024/03/24 12:28:23;;;;;;;22.00;20.80;;;;;;;;;;5107915;28;20438;-75
2024/03/24 12:30:51;;;;;;;21.07;19.70;;;;;;;;;;5107705;28;20545;-76
2024/03/24 12:33:23;;;;;;;19.70;18.70;;;;;;;;;;5107553;28;20453;-77
2024/03/24 12:35:52;;;;;;;20.30;19.20;;;;;;;;;;5100401;28;20458;-75
2024/03/24 12:38:19;;;;;;;20.07;18.90;;;;;;;;;;5086949;28;20494;-76
2024/03/24 12:40:54;;;;;;;17.70;16.80;;;;;;;;;;5087009;28;20445;-76
2024/03/24 12:43:24;;;;;;;18.20;16.90;;;;;;;;;;5087580;28;20426;-75
2024/03/24 12:45:56;;;;;;;17.50;16.60;;;;;;;;;;5086393;28;20459;-76
2024/03/24 12:48:24;;;;;;;18.90;17.53;;;;;;;;;;5086995;28;21400;-77
2024/03/24 12:50:51;;;;;;;22.57;20.97;;;;;;;;;;5087181;28;20815;-76
2024/03/24 12:53:34;;;;;;;26.20;24.00;;;;;;;;;;5087288;28;20451;-76
2024/03/24 12:56:18;;;;;;;27.63;25.10;;;;;;;;;;5085751;28;20425;-76
2024/03/24 12:58:46;;;;;;;45.13;33.83;;;;;;;;;;5087268;28;20435;-76
2024/03/24 13:01:18;;;;;;;22.53;20.63;;;;;;;;;;5087073;28;20548;-76
2024/03/24 13:03:51;;;;;;;21.70;20.20;;;;;;;;;;5087256;28;20432;-77
2024/03/24 13:06:21;;;;;;;22.53;21.03;;;;;;;;;;5086124;28;20482;-77
2024/03/24 13:08:52;;;;;;;22.93;21.60;;;;;;;;;;5086785;28;20534;-76
2024/03/24 13:11:21;;;;;;;57.63;46.40;;;;;;;;;;5086878;28;20457;-78
2024/03/24 13:13:57;;;;;;;123.60;86.70;;;;;;;;;;5086970;28;20486;-76
2024/03/24 13:16:29;;;;;;;24.40;22.40;;;;;;;;;;5086505;28;20431;-76
2024/03/24 13:18:58;;;;;;;30.77;28.47;;;;;;;;;;5076253;28;20448;-77
2024/03/24 13:21:28;;;;;;;29.90;28.03;;;;;;;;;;5073138;28;20505;-77
2024/03/24 13:23:58;;;;;;;31.70;29.53;;;;;;;;;;5073020;28;20456;-76
2024/03/24 13:26:28;;;;;;;63.77;58.37;;;;;;;;;;5072508;28;20488;-77
2024/03/24 13:29:03;;;;;;;27.37;25.53;;;;;;;;;;5072880;28;20460;-78
2024/03/24 13:31:32;;;;;;;35.17;32.07;;;;;;;;;;5073174;28;20437;-75
2024/03/24 13:34:19;;;;;;;45.97;42.20;;;;;;;;;;5072018;28;20435;-76
2024/03/24 13:36:49;;;;;;;30.43;28.20;;;;;;;;;;5071981;28;20548;-77
2024/03/24 13:39:18;;;;;;;21.43;20.07;;;;;;;;;;5072534;28;20456;-76
2024/03/24 13:41:53;;;;;;;20.73;19.60;;;;;;;;;;5072644;28;20451;-76
2024/03/24 13:44:24;;;;;;;21.13;20.03;;;;;;;;;;5073019;28;20426;-77
2024/03/24 13:46:57;;;;;;;20.33;19.33;;;;;;;;;;5071365;28;20487;-77
2024/03/24 13:49:26;;;;;;;22.60;21.00;;;;;;;;;;5070989;28;20474;-77
2024/03/24 13:51:55;;;;;;;22.83;21.30;;;;;;;;;;5072681;28;20456;-77
2024/03/24 13:54:29;;;;;;;23.10;21.37;;;;;;;;;;5072962;28;20451;-78
2024/03/24 13:57:03;;;;;;;22.97;21.57;;;;;;;;;;5070637;28;20455;-76
2024/03/24 13:59:36;;;;;;;25.70;23.80;;;;;;;;;;5072559;28;20468;-77
2024/03/24 14:02:04;;;;;;;24.70;23.20;;;;;;;;;;5072795;28;20444;-77
2024/03/24 14:04:34;;;;;;;28.67;26.80;;;;;;;;;;5072389;28;21028;-77
2024/03/24 14:07:01;;;;;;;30.47;28.87;;;;;;;;;;5071604;28;20533;-76
2024/03/24 14:09:28;;;;;;;25.07;23.47;;;;;;;;;;5071515;28;20508;-78
2024/03/24 14:11:57;;;;;;;25.20;23.50;;;;;;;;;;5069240;28;20461;-77
2024/03/24 14:14:43;;;;;;;23.07;21.77;;;;;;;;;;5070494;28;20458;-77
2024/03/24 14:17:14;;;;;;;24.60;22.87;;;;;;;;;;5071851;28;20459;-77
2024/03/24 14:19:43;;;;;;;24.23;22.90;;;;;;;;;;5071816;28;20479;-77
2024/03/24 14:22:13;;;;;;;44.13;41.93;;;;;;;;;;5071865;28;20455;-77
2024/03/24 14:24:40;;;;;;;48.27;45.57;;;;;;;;;;5072205;28;20527;-77
2024/03/24 14:27:11;;;;;;;53.57;50.33;;;;;;;;;;5071335;28;20486;-77
2024/03/24 14:29:40;;;;;;;61.70;58.60;;;;;;;;;;5070877;28;20479;-77
2024/03/24 14:32:09;;;;;;;69.40;65.60;;;;;;;;;;5072332;28;20477;-78
2024/03/24 14:34:37;;;;;;;79.03;75.50;;;;;;;;;;5072326;28;20452;-76
2024/03/24 14:37:15;;;;;;;79.87;75.87;;;;;;;;;;5071353;28;20943;-77
2024/03/24 14:39:49;;;;;;;82.33;77.80;;;;;;;;;;5072089;28;20498;-77
2024/03/24 14:42:23;;;;;;;82.60;78.33;;;;;;;;;;5072424;28;20410;-76
2024/03/24 14:45:10;;;;;;;80.33;76.07;;;;;;;;;;5072253;28;20429;-78
2024/03/24 14:47:47;;;;;;;83.57;79.30;;;;;;;;;;5071683;28;20476;-79
2024/03/24 14:50:17;;;;;;;81.33;77.53;;;;;;;;;;5071668;28;20467;-78
2024/03/24 14:52:53;;;;;;;74.63;71.07;;;;;;;;;;5072510;28;20489;-78